Time;durP1;ratioP1;P1;durP2;ratioP2;P2;SDS_P1;SDS_P2;PMS_P1;PMS_P2;Temp;Humidity;BMP_temperature;BMP_pressure;BME280_temperature;BME280_humidity;BME280_pressure;Samples;Min_cycle;Max_cycle;Signal;HPM_P1;HPM_P2
2023/02/28 00:01:23;;;;;;;13.88;8.60;;;;;;;6.26;100.00;93496.78;5071870;28;20109;-71
2023/02/28 00:03:50;;;;;;;12.63;8.20;;;;;;;6.27;100.00;93506.03;5061520;28;20469;-71
2023/02/28 00:06:17;;;;;;;10.93;7.25;;;;;;;6.27;100.00;93498.38;5061023;28;20637;-71
2023/02/28 00:08:45;;;;;;;21.48;12.93;;;;;;;6.19;100.00;93498.44;5060231;28;20049;-71
2023/02/28 00:11:14;;;;;;;18.15;11.40;;;;;;;6.14;100.00;93493.88;5058047;28;20052;-71
2023/02/28 00:13:42;;;;;;;17.88;10.63;;;;;;;6.09;100.00;93489.31;5056477;28;20045;-72
2023/02/28 00:16:11;;;;;;;17.85;10.50;;;;;;;6.12;100.00;93504.25;5061593;28;20150;-71
2023/02/28 00:18:38;;;;;;;14.15;10.27;;;;;;;6.06;100.00;93494.75;5070985;28;20045;-71
2023/02/28 00:21:06;;;;;;;16.65;10.07;;;;;;;6.07;100.00;93503.19;5071519;28;20090;-72
2023/02/28 00:23:33;;;;;;;18.98;11.80;;;;;;;5.93;100.00;93517.47;5070926;28;20056;-71
2023/02/28 00:26:02;;;;;;;40.28;22.80;;;;;;;5.75;100.00;93511.72;5070801;28;20497;-72
2023/02/28 00:28:29;;;;;;;20.08;15.70;;;;;;;5.35;100.00;93513.59;5070829;28;20048;-72
2023/02/28 00:30:57;;;;;;;22.08;16.23;;;;;;;5.24;100.00;93507.16;5064346;28;20048;-70
2023/02/28 00:33:23;;;;;;;20.02;14.60;;;;;;;5.16;100.00;93514.84;5066209;28;20071;-69
2023/02/28 00:35:50;;;;;;;23.00;15.77;;;;;;;5.15;100.00;93506.44;5071066;28;20512;-70
2023/02/28 00:38:17;;;;;;;26.85;17.10;;;;;;;5.15;100.00;93514.06;5071008;28;20053;-70
2023/02/28 00:40:44;;;;;;;24.88;16.38;;;;;;;5.17;100.00;93509.59;5071274;28;20102;-69
2023/02/28 00:43:12;;;;;;;25.25;16.65;;;;;;;5.22;100.00;93511.63;5070738;28;20044;-69
2023/02/28 00:45:39;;;;;;;27.88;19.65;;;;;;;4.97;100.00;93498.22;5070806;28;20095;-69
2023/02/28 00:48:06;;;;;;;38.63;23.80;;;;;;;5.08;100.00;93497.84;5070723;28;20460;-69
2023/02/28 00:50:33;;;;;;;52.35;29.45;;;;;;;5.05;100.00;93505.84;5061252;28;20092;-69
2023/02/28 00:52:59;;;;;;;52.30;30.17;;;;;;;4.96;100.00;93507.66;5066314;28;20459;-71
2023/02/28 00:55:28;;;;;;;59.25;31.50;;;;;;;5.08;100.00;93505.50;5070411;28;20040;-72
2023/02/28 00:57:54;;;;;;;63.97;34.38;;;;;;;5.12;100.00;93503.41;5070023;28;20048;-72
2023/02/28 01:00:23;;;;;;;64.20;33.33;;;;;;;5.18;100.00;93500.97;5070191;28;20071;-71
2023/02/28 01:02:49;;;;;;;138.00;61.08;;;;;;;5.15;100.00;93472.50;5065229;28;20040;-72
2023/02/28 01:05:16;;;;;;;81.40;39.42;;;;;;;5.49;100.00;93506.97;5064699;28;20052;-72
2023/02/28 01:07:43;;;;;;;56.28;31.85;;;;;;;5.60;100.00;93509.13;5070609;28;21051;-72
2023/02/28 01:10:11;;;;;;;54.95;28.30;;;;;;;5.72;100.00;93512.06;5053954;28;20555;-72
2023/02/28 01:12:38;;;;;;;72.28;32.75;;;;;;;5.77;100.00;93505.66;5065169;28;20052;-72
2023/02/28 01:15:06;;;;;;;68.90;31.77;;;;;;;5.85;100.00;93498.75;5070704;28;20098;-71
2023/02/28 01:17:34;;;;;;;63.20;29.40;;;;;;;5.95;100.00;93495.13;5069549;28;20052;-70
2023/02/28 01:20:01;;;;;;;57.70;29.17;;;;;;;5.94;100.00;93485.91;5070396;28;20049;-69
2023/02/28 01:22:28;;;;;;;56.75;28.30;;;;;;;6.06;100.00;93502.38;5070480;28;20439;-69
2023/02/28 01:24:54;;;;;;;48.53;26.70;;;;;;;6.07;100.00;93503.97;5069888;28;20497;-69
2023/02/28 01:27:21;;;;;;;58.42;29.55;;;;;;;6.13;100.00;93503.31;5070122;28;20067;-69
2023/02/28 01:29:48;;;;;;;48.15;25.17;;;;;;;6.19;100.00;93495.88;5070168;28;20174;-69
2023/02/28 01:32:14;;;;;;;48.35;23.10;;;;;;;6.22;100.00;93503.19;5059026;28;20455;-69
2023/02/28 01:34:43;;;;;;;47.90;22.73;;;;;;;6.23;100.00;93502.22;5070425;28;20041;-69
2023/02/28 01:37:09;;;;;;;47.67;22.52;;;;;;;6.26;100.00;93507.00;5069739;28;20044;-70
2023/02/28 01:39:36;;;;;;;40.10;18.45;;;;;;;6.24;100.00;93509.72;5069241;28;20052;-69
2023/02/28 01:42:03;;;;;;;40.22;18.63;;;;;;;6.32;100.00;93510.59;5068748;28;20412;-70
2023/02/28 01:45:07;;;;;;;28.02;17.25;;;;;;;6.21;100.00;93517.69;5069567;28;20044;-69
2023/02/28 01:47:37;;;;;;;32.30;18.60;;;;;;;6.24;100.00;93514.81;5069165;28;20098;-70
2023/02/28 01:50:10;;;;;;;35.33;18.08;;;;;;;6.24;100.00;93502.06;5069519;28;20040;-70
2023/02/28 01:52:38;;;;;;;34.05;19.08;;;;;;;6.23;100.00;93505.59;5069453;28;20102;-70
2023/02/28 01:55:07;;;;;;;32.42;18.27;;;;;;;6.10;100.00;93506.19;5069515;28;20040;-70
2023/02/28 01:57:38;;;;;;;32.92;19.08;;;;;;;6.14;100.00;93504.06;5068972;28;20056;-70
2023/02/28 02:00:09;;;;;;;35.53;19.63;;;;;;;6.11;100.00;93507.75;5069583;28;20098;-70
2023/02/28 02:02:37;;;;;;;34.92;20.23;;;;;;;6.09;100.00;93501.25;5069374;28;20040;-70
2023/02/28 02:05:08;;;;;;;35.47;18.65;;;;;;;6.09;100.00;93506.34;5069370;28;20109;-69
2023/02/28 02:07:37;;;;;;;42.20;22.58;;;;;;;6.01;100.00;93500.34;5068931;28;20044;-70
2023/02/28 02:10:11;;;;;;;34.53;18.88;;;;;;;6.09;100.00;93512.25;5069265;28;20145;-70
2023/02/28 02:12:56;;;;;;;38.70;23.08;;;;;;;6.08;100.00;93520.06;5069043;28;20523;-70
2023/02/28 02:15:31;;;;;;;34.72;19.00;;;;;;;6.11;100.00;93517.19;5068955;28;20044;-69
2023/02/28 02:18:02;;;;;;;32.38;15.85;;;;;;;6.15;100.00;93514.09;5069049;28;20052;-70
2023/02/28 02:20:55;;;;;;;28.73;15.70;;;;;;;6.13;100.00;93510.94;5069246;28;20101;-70
2023/02/28 02:24:15;;;;;;;31.50;17.20;;;;;;;6.15;100.00;93518.41;5069183;28;20446;-70
2023/02/28 02:27:06;;;;;;;34.85;17.42;;;;;;;6.15;100.00;93519.22;5068783;28;20492;-70
2023/02/28 02:30:12;;;;;;;30.85;15.93;;;;;;;6.19;100.00;93516.28;5068750;28;20048;-70
2023/02/28 02:33:26;;;;;;;30.50;14.98;;;;;;;6.20;100.00;93520.44;5068717;28;20044;-70
2023/02/28 02:35:56;;;;;;;24.80;14.68;;;;;;;6.21;100.00;93525.34;5068580;28;20048;-70
2023/02/28 02:38:33;;;;;;;25.88;14.45;;;;;;;6.21;100.00;93530.47;5068795;28;20109;-70
2023/02/28 02:41:07;;;;;;;35.83;15.95;;;;;;;6.24;100.00;93530.13;5068931;28;20124;-71
2023/02/28 02:43:37;;;;;;;32.03;16.08;;;;;;;6.27;100.00;93536.63;5068618;28;20068;-70
2023/02/28 02:46:11;;;;;;;31.52;15.68;;;;;;;6.24;100.00;93531.88;5068840;28;20086;-70
2023/02/28 02:48:41;;;;;;;28.33;15.18;;;;;;;6.22;100.00;93526.97;5068910;28;20056;-71
2023/02/28 02:51:15;;;;;;;31.73;15.32;;;;;;;6.03;100.00;93499.41;5068817;28;20106;-70
2023/02/28 02:53:49;;;;;;;32.70;17.05;;;;;;;6.13;100.00;93513.50;5070498;28;20041;-71
2023/02/28 02:56:17;;;;;;;30.55;15.70;;;;;;;6.17;100.00;93528.44;5075270;28;20040;-70
2023/02/28 02:58:45;;;;;;;29.73;15.48;;;;;;;6.09;100.00;93534.41;5075364;28;20041;-71
2023/02/28 03:01:16;;;;;;;29.33;16.35;;;;;;;5.77;100.00;93533.69;5075461;28;20044;-70
2023/02/28 03:03:44;;;;;;;29.48;16.20;;;;;;;5.88;100.00;93521.31;5075433;28;20475;-70
2023/02/28 03:06:12;;;;;;;32.47;17.83;;;;;;;5.91;100.00;93527.84;5075330;28;20110;-70
2023/02/28 03:08:39;;;;;;;32.90;16.98;;;;;;;5.80;100.00;93516.31;5052910;28;20110;-70
2023/02/28 03:11:13;;;;;;;40.97;17.88;;;;;;;5.97;100.00;93534.03;5054859;28;20566;-70
2023/02/28 03:13:55;;;;;;;36.45;18.38;;;;;;;5.96;100.00;93529.88;5055202;28;20124;-70
2023/02/28 03:16:36;;;;;;;34.33;18.02;;;;;;;5.97;100.00;93531.47;5054871;28;20045;-71
2023/02/28 03:19:34;;;;;;;33.83;16.52;;;;;;;6.01;100.00;93546.25;5055177;28;20041;-70
2023/02/28 03:22:23;;;;;;;30.17;16.95;;;;;;;5.91;100.00;93537.22;5033916;28;20098;-70
2023/02/28 03:24:56;;;;;;;35.65;16.33;;;;;;;6.00;100.00;93556.59;5055270;28;20091;-70
2023/02/28 03:27:28;;;;;;;32.80;16.38;;;;;;;5.98;100.00;93554.22;5054906;28;20127;-70
2023/02/28 03:30:02;;;;;;;27.40;13.68;;;;;;;5.81;100.00;93532.38;5067768;28;20040;-70
2023/02/28 03:32:34;;;;;;;28.90;15.40;;;;;;;6.01;100.00;93564.09;5074790;28;20046;-71
2023/02/28 03:35:07;;;;;;;27.85;14.50;;;;;;;5.98;100.00;93556.78;5074882;28;20489;-71
2023/02/28 03:37:39;;;;;;;29.77;14.95;;;;;;;6.00;100.00;93556.59;5074938;28;20037;-70
2023/02/28 03:40:12;;;;;;;29.52;13.20;;;;;;;5.96;100.00;93552.81;5074706;28;20505;-71
2023/02/28 03:42:43;;;;;;;26.75;14.20;;;;;;;5.85;100.00;93546.38;5074774;28;20520;-70
2023/02/28 03:45:14;;;;;;;26.77;13.25;;;;;;;5.92;100.00;93559.25;5075106;28;20091;-71
2023/02/28 03:47:46;;;;;;;19.67;11.02;;;;;;;5.85;100.00;93561.69;5075043;28;20052;-70
2023/02/28 03:50:19;;;;;;;20.95;11.07;;;;;;;5.65;100.00;93551.94;5074802;28;20050;-70
2023/02/28 03:52:51;;;;;;;23.20;12.38;;;;;;;5.69;100.00;93565.94;5075052;28;20044;-70
2023/02/28 03:55:19;;;;;;;20.23;10.57;;;;;;;5.53;100.00;93554.09;5074924;28;20451;-70
2023/02/28 03:57:57;;;;;;;21.17;13.30;;;;;;;5.18;100.00;93553.66;5074902;28;20439;-70
2023/02/28 04:00:30;;;;;;;23.13;15.40;;;;;;;5.15;100.00;93557.34;5074974;28;20036;-70
2023/02/28 04:02:57;;;;;;;31.80;15.45;;;;;;;4.95;100.00;93539.13;5074534;28;20483;-70
2023/02/28 04:05:24;;;;;;;32.50;14.38;;;;;;;5.01;100.00;93548.66;5072605;28;20455;-70
2023/02/28 04:07:53;;;;;;;26.63;14.35;;;;;;;4.96;100.00;93558.56;5071663;28;20417;-70
2023/02/28 04:10:20;;;;;;;24.90;13.52;;;;;;;4.94;100.00;93558.72;5071585;28;20037;-71
2023/02/28 04:12:47;;;;;;;28.45;13.55;;;;;;;4.91;100.00;93553.94;5071535;28;20094;-70
2023/02/28 04:15:14;;;;;;;22.10;11.80;;;;;;;4.92;100.00;93552.22;5071138;28;20045;-71
2023/02/28 04:17:41;;;;;;;25.05;12.52;;;;;;;4.94;100.00;93561.25;5071194;28;20500;-70
2023/02/28 04:20:10;;;;;;;24.67;15.20;;;;;;;4.75;100.00;93541.28;5071460;28;20454;-70
2023/02/28 04:22:37;;;;;;;33.00;21.02;;;;;;;4.59;100.00;93537.06;5071148;28;20048;-70
2023/02/28 04:25:07;;;;;;;31.77;17.40;;;;;;;4.84;100.00;93559.84;5071054;28;20037;-70
2023/02/28 04:27:34;;;;;;;28.45;13.73;;;;;;;4.86;100.00;93547.78;5071103;28;20473;-70
2023/02/28 04:30:01;;;;;;;27.83;15.20;;;;;;;4.78;100.00;93539.19;5071122;28;20090;-70
2023/02/28 04:32:27;;;;;;;29.50;15.18;;;;;;;4.97;100.00;93557.59;5070893;28;20053;-70
2023/02/28 04:34:54;;;;;;;30.67;15.73;;;;;;;5.07;100.00;93563.28;5070934;28;20048;-70
2023/02/28 04:37:21;;;;;;;29.52;14.75;;;;;;;5.16;100.00;93564.03;5071101;28;20090;-70
2023/02/28 04:39:47;;;;;;;25.90;14.57;;;;;;;5.26;100.00;93560.47;5071111;28;20052;-70
2023/02/28 04:42:16;;;;;;;25.75;13.60;;;;;;;5.32;100.00;93570.78;5070754;28;20049;-70
2023/02/28 04:44:42;;;;;;;23.80;12.65;;;;;;;5.31;100.00;93573.50;5056067;28;20037;-70
2023/02/28 04:47:09;;;;;;;24.73;13.95;;;;;;;5.26;100.00;93566.34;5065070;28;20575;-70
2023/02/28 04:49:36;;;;;;;28.00;14.05;;;;;;;5.37;100.00;93577.91;5070675;28;20037;-70
2023/02/28 04:52:03;;;;;;;24.48;13.10;;;;;;;5.42;100.00;93578.19;5070766;28;20070;-70
2023/02/28 04:54:30;;;;;;;29.55;14.65;;;;;;;5.44;100.00;93583.13;5070818;28;20036;-70
2023/02/28 04:56:57;;;;;;;24.02;12.55;;;;;;;5.49;100.00;93588.53;5070446;28;20094;-70
2023/02/28 04:59:25;;;;;;;23.52;12.75;;;;;;;5.54;100.00;93591.34;5070746;28;20044;-70
2023/02/28 05:01:52;;;;;;;29.80;14.10;;;;;;;5.51;100.00;93591.69;5070377;28;20489;-70
2023/02/28 05:04:19;;;;;;;23.05;11.93;;;;;;;5.12;100.00;93587.44;5070599;28;20045;-70
2023/02/28 05:06:45;;;;;;;25.67;12.93;;;;;;;5.06;100.00;93596.53;5070495;28;20443;-71
2023/02/28 05:09:12;;;;;;;25.10;12.52;;;;;;;5.14;100.00;93599.03;5070457;28;20044;-70
2023/02/28 05:11:39;;;;;;;23.85;14.10;;;;;;;4.81;100.00;93583.88;5070303;28;20048;-70
2023/02/28 05:14:10;;;;;;;26.75;13.30;;;;;;;4.61;100.00;93589.38;5070369;28;20382;-70
2023/02/28 05:16:38;;;;;;;28.83;14.85;;;;;;;4.77;100.00;93601.25;5069591;28;20074;-70
2023/02/28 05:19:05;;;;;;;24.33;13.65;;;;;;;4.63;100.00;93591.75;5070358;28;20044;-70
2023/02/28 05:21:34;;;;;;;23.33;12.63;;;;;;;4.68;100.00;93592.06;5070004;28;20500;-70
2023/02/28 05:24:02;;;;;;;31.60;14.85;;;;;;;4.83;100.00;93599.81;5070168;28;20554;-70
2023/02/28 05:26:29;;;;;;;28.52;14.77;;;;;;;4.78;100.00;93605.38;5070365;28;20041;-70
2023/02/28 05:28:57;;;;;;;26.70;14.18;;;;;;;4.85;100.00;93602.97;5069753;28;20417;-70
2023/02/28 05:31:24;;;;;;;33.97;17.55;;;;;;;4.95;100.00;93608.66;5069622;28;20095;-70
2023/02/28 05:33:53;;;;;;;31.33;16.80;;;;;;;5.02;100.00;93613.09;5069694;28;20040;-70
2023/02/28 05:36:19;;;;;;;27.30;14.32;;;;;;;5.14;100.00;93608.44;5069864;28;20090;-70
2023/02/28 05:38:48;;;;;;;24.83;12.02;;;;;;;5.21;100.00;93617.81;5069839;28;20102;-70
2023/02/28 05:41:15;;;;;;;26.52;12.18;;;;;;;5.22;100.00;93616.84;5069744;28;20048;-70
2023/02/28 05:43:42;;;;;;;25.48;12.75;;;;;;;5.20;100.00;93618.75;5069779;28;20121;-70
2023/02/28 05:46:11;;;;;;;26.02;11.45;;;;;;;5.32;100.00;93631.91;5069465;28;20040;-70
2023/02/28 05:48:39;;;;;;;23.92;11.68;;;;;;;5.37;100.00;93635.72;5069592;28;20489;-70
2023/02/28 05:51:08;;;;;;;26.83;13.32;;;;;;;5.38;100.00;93635.56;5069257;28;20546;-70
2023/02/28 05:53:35;;;;;;;26.70;12.82;;;;;;;5.41;100.00;93634.44;5068994;28;20041;-70
2023/02/28 05:56:02;;;;;;;29.88;15.73;;;;;;;5.46;100.00;93638.06;5069556;28;20066;-70
2023/02/28 05:58:30;;;;;;;46.95;19.77;;;;;;;5.52;100.00;93639.16;5069138;28;20045;-70
2023/02/28 06:01:00;;;;;;;61.72;27.38;;;;;;;5.54;100.00;93639.78;5069287;28;20044;-70
2023/02/28 06:03:27;;;;;;;52.58;23.85;;;;;;;5.58;100.00;93647.88;5069364;28;20090;-70
2023/02/28 06:05:54;;;;;;;35.40;16.15;;;;;;;5.62;100.00;93642.25;5069137;28;20044;-70
2023/02/28 06:08:22;;;;;;;33.42;15.25;;;;;;;5.64;100.00;93646.41;5069387;28;20048;-70
2023/02/28 06:10:49;;;;;;;31.75;15.18;;;;;;;5.69;100.00;93646.72;5069282;28;20045;-70
2023/02/28 06:13:16;;;;;;;28.40;14.05;;;;;;;5.69;100.00;93650.03;5068701;28;20048;-70
2023/02/28 06:15:43;;;;;;;31.55;14.85;;;;;;;5.62;100.00;93637.16;5069214;28;20153;-70
2023/02/28 06:18:09;;;;;;;30.92;15.18;;;;;;;5.69;100.00;93646.72;5069050;28;20086;-70
2023/02/28 06:20:36;;;;;;;27.60;14.73;;;;;;;5.74;100.00;93650.31;5068555;28;20048;-70
2023/02/28 06:23:03;;;;;;;36.90;16.58;;;;;;;5.80;100.00;93653.16;5069084;28;20040;-70
2023/02/28 06:25:31;;;;;;;32.40;16.88;;;;;;;5.81;100.00;93650.44;5064870;28;20040;-71
2023/02/28 06:27:58;;;;;;;31.42;16.73;;;;;;;5.85;100.00;93646.63;5066860;28;20052;-71
2023/02/28 06:30:26;;;;;;;38.80;18.05;;;;;;;5.89;100.00;93647.84;5068376;28;20127;-70
2023/02/28 06:32:54;;;;;;;37.67;17.95;;;;;;;5.97;100.00;93654.66;5068717;28;20059;-70
2023/02/28 06:35:21;;;;;;;33.65;17.02;;;;;;;6.01;100.00;93655.91;5068509;28;20052;-70
2023/02/28 06:37:48;;;;;;;42.20;19.30;;;;;;;6.07;100.00;93658.75;5068916;28;20044;-70
2023/02/28 06:40:15;;;;;;;37.65;18.67;;;;;;;6.09;100.00;93654.28;5068491;28;20059;-70
2023/02/28 06:42:43;;;;;;;38.75;17.50;;;;;;;6.11;100.00;93657.47;5068815;28;20106;-70
2023/02/28 06:45:10;;;;;;;32.65;16.48;;;;;;;6.15;100.00;93663.78;5069059;28;20056;-70
2023/02/28 06:47:38;;;;;;;37.13;17.58;;;;;;;6.11;100.00;93665.91;5068323;28;20090;-70
2023/02/28 06:50:05;;;;;;;40.50;19.33;;;;;;;6.14;100.00;93663.00;5068775;28;20041;-70
2023/02/28 06:52:32;;;;;;;38.03;17.77;;;;;;;6.13;100.00;93669.09;5068436;28;20057;-70
2023/02/28 06:55:00;;;;;;;34.00;17.42;;;;;;;6.04;100.00;93664.19;5068247;28;20048;-70
2023/02/28 06:57:30;;;;;;;34.25;18.60;;;;;;;5.88;100.00;93665.88;5068483;28;20401;-70
2023/02/28 06:59:59;;;;;;;35.92;16.95;;;;;;;5.94;100.00;93669.50;5068327;28;20501;-70
2023/02/28 07:02:25;;;;;;;36.28;19.23;;;;;;;5.97;100.00;93664.84;5068708;28;20095;-70
2023/02/28 07:04:52;;;;;;;39.35;21.27;;;;;;;6.01;100.00;93675.50;5064013;28;20599;-70
2023/02/28 07:07:19;;;;;;;48.75;21.55;;;;;;;6.09;100.00;93672.13;5066748;28;20041;-70
2023/02/28 07:09:45;;;;;;;41.55;20.55;;;;;;;6.17;100.00;93676.38;5068531;28;20550;-70
2023/02/28 07:12:12;;;;;;;48.10;22.83;;;;;;;5.95;100.00;93676.97;5068343;28;20105;-70
2023/02/28 07:14:39;;;;;;;44.85;22.67;;;;;;;5.83;100.00;93674.00;5068255;28;20134;-70
2023/02/28 07:17:10;;;;;;;54.10;27.67;;;;;;;5.67;100.00;93671.56;5068374;28;20092;-70
2023/02/28 07:19:37;;;;;;;51.05;26.38;;;;;;;5.66;100.00;93673.31;5068521;28;20046;-70
2023/02/28 07:22:04;;;;;;;46.30;22.52;;;;;;;5.75;100.00;93669.75;5068117;28;20094;-70
2023/02/28 07:24:31;;;;;;;45.03;21.95;;;;;;;5.72;100.00;93667.56;5068683;28;20036;-70
2023/02/28 07:26:59;;;;;;;48.05;23.27;;;;;;;5.75;100.00;93667.19;5068165;28;20102;-70
2023/02/28 07:29:26;;;;;;;45.40;21.33;;;;;;;5.46;100.00;93668.63;5068323;28;20390;-70
2023/02/28 07:31:53;;;;;;;44.17;25.40;;;;;;;5.09;100.00;93672.59;5067846;28;20505;-70
2023/02/28 07:34:22;;;;;;;43.17;22.60;;;;;;;4.81;100.00;93678.88;5068272;28;20044;-70
2023/02/28 07:36:49;;;;;;;46.40;22.02;;;;;;;4.66;100.00;93676.19;5068525;28;20102;-69
2023/02/28 07:39:15;;;;;;;46.40;23.23;;;;;;;4.70;100.00;93686.03;5068097;28;20127;-70
2023/02/28 07:41:44;;;;;;;56.63;30.85;;;;;;;4.72;100.00;93679.06;5070696;28;20052;-70
2023/02/28 07:44:13;;;;;;;50.05;24.70;;;;;;;4.68;100.00;93687.00;5072158;28;20044;-70
2023/02/28 07:46:40;;;;;;;49.30;23.33;;;;;;;4.85;100.00;93684.44;5059112;28;20156;-70
2023/02/28 07:49:06;;;;;;;50.63;23.60;;;;;;;5.03;100.00;93668.97;5071916;28;20049;-70
2023/02/28 07:51:34;;;;;;;56.00;26.02;;;;;;;5.31;100.00;93670.28;5045463;28;20048;-69
2023/02/28 07:54:01;;;;;;;49.05;25.85;;;;;;;5.34;100.00;93668.19;5071810;28;20094;-70
2023/02/28 07:56:28;;;;;;;50.42;23.77;;;;;;;5.52;100.00;93663.84;5071982;28;20264;-70
2023/02/28 07:58:55;;;;;;;50.03;25.13;;;;;;;5.71;100.00;93673.63;5072019;28;20056;-70
2023/02/28 08:01:21;;;;;;;61.30;30.25;;;;;;;5.88;100.00;93679.41;5071762;28;20068;-70
2023/02/28 08:03:48;;;;;;;52.38;28.05;;;;;;;6.12;100.00;93675.13;5071668;28;20051;-70
2023/02/28 08:06:18;;;;;;;59.67;30.45;;;;;;;6.34;100.00;93680.41;5071983;28;20094;-70
2023/02/28 08:08:47;;;;;;;55.97;27.98;;;;;;;6.47;100.00;93684.16;5057826;28;20045;-70
2023/02/28 08:11:14;;;;;;;64.63;28.83;;;;;;;6.63;100.00;93689.09;5071613;28;20049;-70
2023/02/28 08:13:42;;;;;;;60.45;26.92;;;;;;;6.79;100.00;93688.16;5071799;28;20048;-70
2023/02/28 08:16:09;;;;;;;59.95;27.40;;;;;;;6.86;100.00;93672.13;5071610;28;20515;-70
2023/02/28 08:18:35;;;;;;;36.53;19.65;;;;;;;6.84;100.00;93690.19;5071772;28;20040;-70
2023/02/28 08:21:07;;;;;;;37.63;17.25;;;;;;;6.69;100.00;93697.81;5071579;28;20497;-70
2023/02/28 08:23:34;;;;;;;35.90;17.67;;;;;;;6.91;100.00;93695.41;5071057;28;20553;-70
2023/02/28 08:26:04;;;;;;;44.22;21.20;;;;;;;6.71;100.00;93690.00;5071623;28;20460;-71
2023/02/28 08:28:31;;;;;;;41.47;20.73;;;;;;;6.85;100.00;93696.09;5068490;28;20109;-70
2023/02/28 08:30:57;;;;;;;39.13;20.23;;;;;;;6.86;100.00;93693.38;5069388;28;20048;-70
2023/02/28 08:33:25;;;;;;;43.83;20.98;;;;;;;7.02;100.00;93669.41;5070130;28;20084;-70
2023/02/28 08:35:54;;;;;;;44.20;21.10;;;;;;;7.29;100.00;93685.09;5071479;28;20088;-70
2023/02/28 08:38:21;;;;;;;45.25;20.70;;;;;;;7.43;100.00;93692.94;5071106;28;20056;-70
2023/02/28 08:40:48;;;;;;;42.55;23.13;;;;;;;7.56;100.00;93690.53;5071204;28;20071;-70
2023/02/28 08:43:17;;;;;;;42.08;18.85;;;;;;;7.17;100.00;93697.50;5070426;28;20514;-70
2023/02/28 08:45:44;;;;;;;46.70;20.88;;;;;;;7.13;100.00;93703.94;5071174;28;20103;-70
2023/02/28 08:48:10;;;;;;;49.83;23.58;;;;;;;7.16;100.00;93697.69;5070759;28;20040;-70
2023/02/28 08:50:37;;;;;;;54.85;26.33;;;;;;;7.10;100.00;93699.19;5071088;28;20489;-70
2023/02/28 08:53:04;;;;;;;51.22;25.30;;;;;;;6.88;100.00;93691.44;5070309;28;20111;-70
2023/02/28 08:55:30;;;;;;;48.10;21.25;;;;;;;6.72;100.00;93694.13;5071130;28;20094;-70
2023/02/28 08:57:58;;;;;;;51.53;23.70;;;;;;;6.99;100.00;93694.53;5070039;28;20547;-70
2023/02/28 09:00:26;;;;;;;56.58;24.35;;;;;;;7.20;100.00;93692.06;5068004;28;20045;-70
2023/02/28 09:02:54;;;;;;;55.60;26.38;;;;;;;7.42;100.00;93692.16;5059601;28;20095;-70
2023/02/28 09:05:21;;;;;;;56.17;25.38;;;;;;;7.66;100.00;93690.25;5070324;28;20074;-70
2023/02/28 09:07:50;;;;;;;50.20;24.92;;;;;;;7.87;100.00;93683.59;5056105;28;20041;-72
2023/02/28 09:10:17;;;;;;;42.40;23.33;;;;;;;8.08;100.00;93689.69;5069331;28;20040;-72
2023/02/28 09:12:46;;;;;;;48.70;25.63;;;;;;;8.26;100.00;93687.53;5069162;28;20058;-70
2023/02/28 09:15:16;;;;;;;45.08;21.50;;;;;;;8.45;100.00;93689.63;5068423;28;20055;-71
2023/02/28 09:17:44;;;;;;;44.58;21.70;;;;;;;8.54;100.00;93696.25;5068764;28;20497;-71
2023/02/28 09:20:12;;;;;;;42.80;23.40;;;;;;;8.69;100.00;93693.59;5069769;28;20044;-71
2023/02/28 09:22:39;;;;;;;45.47;21.63;;;;;;;8.82;100.00;93695.47;5069778;28;20040;-71
2023/02/28 09:25:06;;;;;;;41.03;20.95;;;;;;;8.86;100.00;93698.44;5069982;28;20090;-71
2023/02/28 09:27:32;;;;;;;45.85;22.35;;;;;;;8.96;100.00;93693.78;5060135;28;20056;-71
2023/02/28 09:29:59;;;;;;;43.42;20.42;;;;;;;9.00;100.00;93701.88;5069111;28;20094;-71
2023/02/28 09:32:26;;;;;;;43.83;22.38;;;;;;;9.06;100.00;93701.13;5068351;28;20094;-71
2023/02/28 09:34:54;;;;;;;46.08;22.35;;;;;;;9.15;100.00;93694.09;5067325;28;20400;-71
2023/02/28 09:37:21;;;;;;;42.33;21.30;;;;;;;9.21;100.00;93696.69;5064713;28;20459;-71
2023/02/28 09:39:47;;;;;;;51.10;21.95;;;;;;;9.30;100.00;93694.78;5069579;28;20057;-71
2023/02/28 09:42:23;;;;;;;40.28;22.83;;;;;;;9.40;100.00;93691.84;5064077;28;20554;-71
2023/02/28 09:44:51;;;;;;;39.10;20.05;;;;;;;9.45;100.00;93681.81;5052628;28;20040;-71
2023/02/28 09:47:26;;;;;;;46.58;22.23;;;;;;;9.46;100.00;93683.44;5064695;28;20505;-71
2023/02/28 09:49:58;;;;;;;46.72;21.65;;;;;;;9.51;100.00;93682.03;5067507;28;20094;-71
2023/02/28 09:52:29;;;;;;;41.85;19.73;;;;;;;9.59;100.00;93681.91;5069614;28;20094;-71
2023/02/28 09:54:56;;;;;;;43.90;20.88;;;;;;;9.59;100.00;93669.84;5060396;28;20044;-71
2023/02/28 09:57:33;;;;;;;37.33;20.10;;;;;;;9.61;100.00;93673.03;5069490;28;20131;-71
2023/02/28 10:00:14;;;;;;;41.10;20.17;;;;;;;9.74;100.00;93682.53;5069653;28;20044;-71
2023/02/28 10:02:57;;;;;;;38.42;19.95;;;;;;;9.82;100.00;93675.66;5068795;28;20048;-71
2023/02/28 10:05:29;;;;;;;40.33;20.75;;;;;;;9.86;100.00;93669.16;5069305;28;20119;-71
2023/02/28 10:08:07;;;;;;;39.60;20.48;;;;;;;9.86;100.00;93672.50;5069004;28;20045;-72
2023/02/28 10:10:40;;;;;;;37.95;20.73;;;;;;;9.97;100.00;93665.22;5069467;28;20048;-71
2023/02/28 10:13:13;;;;;;;42.70;22.90;;;;;;;9.98;100.00;93659.09;5069452;28;20121;-71
2023/02/28 10:15:42;;;;;;;39.83;22.88;;;;;;;10.06;100.00;93661.50;5069511;28;20124;-71
2023/02/28 10:18:16;;;;;;;43.05;21.95;;;;;;;10.12;100.00;93659.91;5068969;28;20496;-71
2023/02/28 10:20:45;;;;;;;45.80;23.45;;;;;;;10.25;100.00;93661.72;5069345;28;20138;-71
2023/02/28 10:23:18;;;;;;;46.92;26.13;;;;;;;10.34;100.00;93657.97;5061738;28;20094;-71
2023/02/28 10:25:49;;;;;;;49.08;25.70;;;;;;;10.45;100.00;93655.84;5068721;28;20094;-71
2023/02/28 10:28:18;;;;;;;45.20;23.42;;;;;;;10.47;100.00;93654.66;5068750;28;20040;-71
2023/02/28 10:30:48;;;;;;;47.38;24.40;;;;;;;10.54;100.00;93654.63;5068968;28;20164;-70
2023/02/28 10:33:22;;;;;;;43.55;24.75;;;;;;;10.47;100.00;93648.72;5063757;28;20080;-70
2023/02/28 10:35:50;;;;;;;51.55;26.50;;;;;;;10.42;100.00;93650.06;5067069;28;20053;-70
2023/02/28 10:38:20;;;;;;;46.67;26.38;;;;;;;9.98;100.00;93641.13;5062598;28;20045;-70
2023/02/28 10:40:47;;;;;;;50.25;27.10;;;;;;;10.03;100.00;93644.72;5061121;28;20048;-70
2023/02/28 10:43:25;;;;;;;52.70;27.88;;;;;;;10.06;100.00;93640.16;5061362;28;20049;-70
2023/02/28 10:45:59;;;;;;;53.10;26.40;;;;;;;10.24;100.00;93631.91;5062007;28;20148;-70
2023/02/28 10:48:38;;;;;;;51.00;27.80;;;;;;;10.46;100.00;93635.06;5069200;28;20390;-70
2023/02/28 10:51:08;;;;;;;44.65;25.92;;;;;;;10.48;100.00;93635.69;5068529;28;20040;-70
2023/02/28 10:53:46;;;;;;;50.78;27.75;;;;;;;10.11;100.00;93622.41;5068913;28;20060;-70
2023/02/28 10:56:17;;;;;;;49.50;25.45;;;;;;;10.24;100.00;93612.13;5061522;28;20130;-70
2023/02/28 10:58:54;;;;;;;46.13;25.05;;;;;;;10.35;100.00;93605.63;5068843;28;20048;-70
2023/02/28 11:01:22;;;;;;;40.45;25.05;;;;;;;10.46;100.00;93606.81;5044840;28;20049;-71
2023/02/28 11:03:50;;;;;;;42.00;23.92;;;;;;;10.58;100.00;93607.03;5068873;28;20066;-70
2023/02/28 11:06:21;;;;;;;42.72;25.67;;;;;;;10.69;100.00;93601.28;5068793;28;20044;-70
2023/02/28 11:08:51;;;;;;;49.45;27.05;;;;;;;10.92;100.00;93592.34;5068667;28;20053;-71
2023/02/28 11:11:19;;;;;;;54.53;29.00;;;;;;;11.10;100.00;93596.03;5068659;28;20424;-71
2023/02/28 11:13:51;;;;;;;56.55;26.85;;;;;;;11.29;100.00;93591.03;5068565;28;20044;-71
2023/02/28 11:16:18;;;;;;;49.55;27.48;;;;;;;11.46;100.00;93597.28;5072336;28;20416;-71
2023/02/28 11:18:49;;;;;;;46.05;26.52;;;;;;;11.42;100.00;93592.75;5072345;28;20044;-70
2023/02/28 11:21:28;;;;;;;49.00;26.88;;;;;;;11.53;100.00;93589.53;5072011;28;20189;-70
2023/02/28 11:24:02;;;;;;;51.80;28.63;;;;;;;11.11;100.00;93583.97;5057013;28;20513;-70
2023/02/28 11:26:40;;;;;;;48.25;25.92;;;;;;;10.61;100.00;93575.81;5069423;28;20497;-70
2023/02/28 11:29:17;;;;;;;49.67;27.58;;;;;;;10.81;100.00;93573.19;5072318;28;20106;-70